createdAt,value
2023-03-16T00:02:26.632Z,1.82
2023-03-16T00:05:29.610Z,1.71
2023-03-16T00:08:35.874Z,1.82
2023-03-16T00:11:38.652Z,1.60
2023-03-16T00:14:41.811Z,1.62
2023-03-16T00:17:48.742Z,1.81
2023-03-16T00:20:52.857Z,1.95
2023-03-16T00:23:57.356Z,2.04
2023-03-16T00:27:00.058Z,2.22
2023-03-16T00:30:03.541Z,2.14
2023-03-16T00:33:06.311Z,2.12
2023-03-16T00:36:11.484Z,2.12
2023-03-16T00:39:15.757Z,1.88
2023-03-16T00:42:19.620Z,1.89
2023-03-16T00:45:23.632Z,2.03
2023-03-16T00:48:26.540Z,2.08
2023-03-16T00:51:30.674Z,2.05
2023-03-16T00:54:34.918Z,2.09
2023-03-16T00:57:37.662Z,2.07
2023-03-16T01:00:41.121Z,2.02
2023-03-16T01:03:43.919Z,2.16
2023-03-16T01:06:46.813Z,2.05
2023-03-16T01:09:51.173Z,2.05
2023-03-16T01:12:56.074Z,1.99
2023-03-16T01:15:59.188Z,2.09
2023-03-16T01:19:02.105Z,2.04
2023-03-16T01:22:06.003Z,1.95
2023-03-16T01:25:13.274Z,1.98
2023-03-16T01:28:16.111Z,2.00
2023-03-16T01:31:18.992Z,1.97
2023-03-16T01:34:21.795Z,1.99
2023-03-16T01:37:24.682Z,1.93
2023-03-16T01:40:29.161Z,1.89
2023-03-16T01:43:33.396Z,1.91
2023-03-16T01:46:36.448Z,1.94
2023-03-16T01:49:39.835Z,2.03
2023-03-16T01:52:42.754Z,2.04
2023-03-16T01:55:47.641Z,2.03
2023-03-16T01:58:52.078Z,2.06
2023-03-16T02:01:55.415Z,2.00
2023-03-16T02:05:04.861Z,1.93
2023-03-16T02:08:09.869Z,1.93
2023-03-16T02:11:18.279Z,1.87
2023-03-16T02:14:22.364Z,1.84
2023-03-16T02:17:28.080Z,1.68
2023-03-16T02:20:38.924Z,1.60
2023-03-16T02:23:43.682Z,1.69
2023-03-16T02:26:53.849Z,1.72
2023-03-16T02:30:03.597Z,1.70
2023-03-16T02:33:06.425Z,1.56
2023-03-16T02:36:10.496Z,1.51
2023-03-16T02:39:13.307Z,1.44
2023-03-16T02:42:19.320Z,1.46
2023-03-16T02:45:27.309Z,1.50
2023-03-16T02:48:35.540Z,1.25
2023-03-16T02:51:38.445Z,1.16
2023-03-16T02:54:41.425Z,0.98
2023-03-16T02:57:44.401Z,0.94
2023-03-16T03:00:49.617Z,1.21
2023-03-16T03:03:52.586Z,1.32
2023-03-16T03:07:04.071Z,1.31
2023-03-16T03:10:07.811Z,1.06
2023-03-16T03:13:10.638Z,1.07
2023-03-16T03:16:15.411Z,1.13
2023-03-16T03:19:18.190Z,1.18
2023-03-16T03:22:21.074Z,1.28
2023-03-16T03:25:24.352Z,1.24
2023-03-16T03:28:27.313Z,1.26
2023-03-16T03:31:32.124Z,1.07
2023-03-16T03:34:35.112Z,1.00
2023-03-16T03:37:38.296Z,0.95
2023-03-16T03:40:41.105Z,0.95
2023-03-16T03:43:45.475Z,1.04
2023-03-16T03:46:50.244Z,1.07
2023-03-16T03:49:53.293Z,1.00
2023-03-16T03:52:56.141Z,0.95
2023-03-16T03:55:58.844Z,0.94
2023-03-16T03:59:01.710Z,1.06
2023-03-16T04:02:06.335Z,1.27
2023-03-16T04:05:09.947Z,1.11
2023-03-16T04:08:12.791Z,1.17
2023-03-16T04:11:15.564Z,1.54
2023-03-16T04:14:18.630Z,1.38
2023-03-16T04:17:23.740Z,1.24
2023-03-16T04:20:27.019Z,1.30
2023-03-16T04:23:30.410Z,1.26
2023-03-16T04:26:34.211Z,1.21
2023-03-16T04:29:37.604Z,1.21
2023-03-16T04:32:42.745Z,1.17
2023-03-16T04:35:46.674Z,1.28
2023-03-16T04:38:49.565Z,1.11
2023-03-16T04:41:52.410Z,0.82
2023-03-16T04:44:56.130Z,0.77
2023-03-16T04:48:00.588Z,0.88
2023-03-16T04:51:04.921Z,0.89
2023-03-16T04:54:08.008Z,0.83
2023-03-16T04:57:11.006Z,0.71
2023-03-16T05:00:19.405Z,0.72
2023-03-16T05:03:23.888Z,0.80
2023-03-16T05:06:27.208Z,0.75
2023-03-16T05:09:30.037Z,0.79
2023-03-16T05:12:32.748Z,0.69
2023-03-16T05:15:35.850Z,0.77
2023-03-16T05:18:40.095Z,0.64
2023-03-16T05:21:43.077Z,0.65
2023-03-16T05:24:46.622Z,0.57
2023-03-16T05:27:51.470Z,0.49
2023-03-16T05:30:54.299Z,0.37
2023-03-16T05:33:58.545Z,0.04
2023-03-16T05:37:01.623Z,-0.01
2023-03-16T05:40:12.225Z,-0.02
2023-03-16T05:43:15.047Z,0.01
2023-03-16T05:46:20.600Z,0.06
2023-03-16T05:49:26.270Z,0.15
2023-03-16T05:52:29.046Z,0.22
2023-03-16T05:55:32.212Z,0.19
2023-03-16T05:58:35.240Z,0.19
2023-03-16T06:01:37.994Z,0.09
2023-03-16T06:04:42.494Z,0.17
2023-03-16T06:07:45.462Z,0.24
2023-03-16T06:10:48.998Z,0.32
2023-03-16T06:13:51.936Z,0.39
2023-03-16T06:16:54.688Z,0.70
2023-03-16T06:19:58.880Z,1.18
2023-03-16T06:23:01.654Z,1.58
2023-03-16T06:26:05.345Z,1.88
2023-03-16T06:29:08.699Z,2.18
2023-03-16T06:32:11.648Z,2.49
2023-03-16T06:35:16.048Z,2.81
2023-03-16T06:38:19.523Z,3.18
2023-03-16T06:41:22.408Z,3.54
2023-03-16T06:44:25.226Z,3.96
2023-03-16T06:47:28.118Z,4.22
2023-03-16T06:50:32.212Z,4.69
2023-03-16T06:53:34.957Z,5.07
2023-03-16T06:56:37.694Z,5.39
2023-03-16T06:59:40.492Z,5.78
2023-03-16T07:02:43.919Z,6.18
2023-03-16T07:05:48.007Z,6.58
2023-03-16T07:08:51.733Z,6.92
2023-03-16T07:11:54.570Z,6.99
2023-03-16T07:14:59.050Z,7.21
2023-03-16T07:18:02.271Z,7.34
2023-03-16T07:21:06.774Z,7.78
2023-03-16T07:24:11.599Z,8.04
2023-03-16T07:27:14.732Z,8.33
2023-03-16T07:30:17.891Z,8.65
2023-03-16T07:33:22.915Z,9.02
2023-03-16T07:36:28.499Z,9.29
2023-03-16T07:39:31.648Z,9.42
2023-03-16T07:42:35.583Z,9.53
2023-03-16T07:45:38.457Z,9.98
2023-03-16T07:48:42.516Z,9.94
2023-03-16T07:51:46.894Z,10.24
2023-03-16T07:54:49.877Z,10.34
2023-03-16T07:57:52.623Z,10.61
2023-03-16T08:00:58.760Z,10.85
2023-03-16T08:04:02.625Z,10.57
2023-03-16T08:07:06.874Z,10.78
2023-03-16T08:10:11.538Z,10.98
2023-03-16T08:13:15.108Z,11.05
2023-03-16T08:16:19.540Z,10.55
2023-03-16T08:19:25.016Z,10.59
2023-03-16T08:22:29.104Z,10.83
2023-03-16T08:25:32.038Z,10.83
2023-03-16T08:28:35.740Z,10.46
2023-03-16T08:31:39.073Z,10.29
2023-03-16T08:34:42.560Z,9.68
2023-03-16T08:37:47.719Z,9.66
2023-03-16T08:40:52.187Z,9.46
2023-03-16T08:43:54.886Z,9.47
2023-03-16T08:46:57.821Z,9.61
2023-03-16T08:50:01.118Z,9.46
2023-03-16T08:53:05.263Z,9.46
2023-03-16T08:56:10.554Z,9.29
2023-03-16T08:59:27.047Z,9.10
2023-03-16T09:02:32.760Z,8.90
2023-03-16T09:05:36.588Z,9.18
2023-03-16T09:08:41.753Z,9.26
2023-03-16T09:11:45.129Z,8.93
2023-03-16T09:14:49.053Z,8.85
2023-03-16T09:17:53.383Z,8.78
2023-03-16T09:21:00.137Z,9.18
2023-03-16T09:24:04.865Z,9.29
2023-03-16T09:27:08.757Z,9.12
2023-03-16T09:30:13.174Z,9.35
2023-03-16T09:33:15.915Z,9.18
2023-03-16T09:36:19.034Z,9.20
2023-03-16T09:39:24.186Z,8.96
2023-03-16T09:42:36.474Z,9.03
2023-03-16T09:45:48.050Z,9.37
2023-03-16T09:48:53.072Z,9.78
2023-03-16T09:52:08.611Z,10.09
2023-03-16T09:55:34.261Z,10.59
2023-03-16T09:58:56.070Z,10.78
2023-03-16T10:02:33.313Z,11.56
2023-03-16T10:05:38.597Z,11.82
2023-03-16T10:08:44.389Z,12.21
2023-03-16T10:11:55.210Z,12.66
2023-03-16T10:15:01.842Z,12.86
2023-03-16T10:18:13.754Z,13.32
2023-03-16T10:21:18.225Z,13.74
2023-03-16T10:24:34.306Z,13.80
2023-03-16T10:27:42.200Z,14.36
2023-03-16T10:30:45.417Z,14.86
2023-03-16T10:33:51.891Z,14.35
2023-03-16T10:36:56.205Z,14.69
2023-03-16T10:40:00.761Z,14.88
2023-03-16T10:43:10.112Z,14.90
2023-03-16T10:46:15.025Z,15.03
2023-03-16T10:49:25.795Z,15.13
2023-03-16T10:52:35.463Z,14.63
2023-03-16T10:55:45.805Z,14.90
2023-03-16T10:58:50.128Z,15.01
2023-03-16T11:01:53.419Z,15.41
2023-03-16T11:04:57.391Z,15.85
2023-03-16T11:08:03.142Z,15.86
2023-03-16T11:11:13.402Z,15.63
2023-03-16T11:14:22.307Z,15.52
2023-03-16T11:17:34.092Z,15.80
2023-03-16T11:20:38.011Z,15.75
2023-03-16T11:23:48.537Z,16.04
2023-03-16T11:26:56.681Z,15.91
2023-03-16T11:30:07.337Z,15.73
2023-03-16T11:33:11.531Z,16.23
2023-03-16T11:36:38.857Z,16.60
2023-03-16T11:39:50.215Z,16.14
2023-03-16T11:43:01.310Z,15.98
2023-03-16T11:46:13.870Z,16.08
2023-03-16T11:49:38.525Z,15.84
2023-03-16T11:52:51.398Z,16.18
2023-03-16T11:56:06.677Z,16.26
2023-03-16T11:59:40.834Z,16.50
2023-03-16T12:03:01.232Z,16.05
2023-03-16T12:06:22.490Z,16.17
2023-03-16T12:09:57.267Z,16.37
2023-03-16T12:13:30.806Z,16.24
2023-03-16T12:16:49.148Z,15.66
2023-03-16T12:20:06.080Z,15.63
2023-03-16T12:23:14.775Z,15.82
2023-03-16T12:26:24.411Z,15.49
2023-03-16T12:29:35.307Z,15.25
2023-03-16T12:32:46.643Z,15.58
2023-03-16T12:35:58.096Z,15.13
2023-03-16T12:39:05.398Z,15.28
2023-03-16T12:42:20.693Z,15.31
2023-03-16T12:45:37.045Z,14.98
2023-03-16T12:48:44.569Z,14.88
2023-03-16T12:52:03.732Z,14.80
2023-03-16T12:55:16.774Z,14.87
2023-03-16T12:58:20.774Z,14.72
2023-03-16T13:01:29.223Z,15.01
2023-03-16T13:04:34.969Z,14.66
2023-03-16T13:07:48.672Z,14.51
2023-03-16T13:11:02.362Z,14.44
2023-03-16T13:14:11.212Z,14.31
2023-03-16T13:17:26.065Z,13.99
2023-03-16T13:20:31.976Z,13.70
2023-03-16T13:23:55.603Z,13.51
2023-03-16T13:27:03.273Z,13.54
2023-03-16T13:30:18.774Z,13.28
2023-03-16T13:33:25.688Z,13.24
2023-03-16T13:36:29.919Z,13.13
2023-03-16T13:39:34.536Z,13.13
2023-03-16T13:42:37.538Z,13.31
2023-03-16T13:45:40.830Z,13.12
2023-03-16T13:48:43.914Z,12.83
2023-03-16T13:51:48.610Z,13.08
2023-03-16T13:54:54.599Z,12.91
2023-03-16T13:57:58.001Z,12.52
2023-03-16T14:01:04.892Z,12.31
2023-03-16T14:04:14.318Z,12.39
2023-03-16T14:07:19.741Z,12.39
2023-03-16T14:10:25.269Z,12.13
2023-03-16T14:13:36.338Z,12.20
2023-03-16T14:16:39.901Z,12.21
2023-03-16T14:19:46.521Z,12.22
2023-03-16T14:22:54.006Z,12.15
2023-03-16T14:25:59.087Z,12.04
2023-03-16T14:29:06.466Z,12.10
2023-03-16T14:32:23.421Z,11.90
2023-03-16T14:35:29.133Z,11.75
2023-03-16T14:38:33.938Z,11.59
2023-03-16T14:41:38.971Z,11.61
2023-03-16T14:44:42.537Z,11.43
2023-03-16T14:47:47.655Z,11.68
2023-03-16T14:50:55.268Z,11.49
2023-03-16T14:53:58.147Z,11.40
2023-03-16T14:57:05.560Z,11.33
2023-03-16T15:00:11.993Z,11.20
2023-03-16T15:03:18.549Z,11.30
2023-03-16T15:06:21.990Z,11.36
2023-03-16T15:09:37.150Z,11.26
2023-03-16T15:12:41.355Z,11.15
2023-03-16T15:15:44.335Z,11.04
2023-03-16T15:18:47.637Z,11.09
2023-03-16T15:21:50.829Z,10.98
2023-03-16T15:24:54.495Z,11.15
2023-03-16T15:27:58.642Z,10.94
2023-03-16T15:31:03.005Z,10.85
2023-03-16T15:34:05.851Z,10.91
2023-03-16T15:37:12.968Z,11.03
2023-03-16T15:40:22.121Z,10.72
2023-03-16T15:43:28.853Z,10.84
2023-03-16T15:46:31.644Z,10.63
2023-03-16T15:49:46.510Z,10.50
2023-03-16T15:52:54.921Z,10.39
2023-03-16T15:56:03.000Z,10.32
2023-03-16T15:59:12.222Z,10.22
2023-03-16T16:02:27.602Z,10.09
2023-03-16T16:05:30.938Z,10.32
2023-03-16T16:08:33.794Z,10.43
2023-03-16T16:11:36.740Z,10.27
2023-03-16T16:14:41.870Z,10.09
2023-03-16T16:18:01.905Z,9.86
2023-03-16T16:21:09.641Z,9.90
2023-03-16T16:24:12.695Z,9.83
2023-03-16T16:27:15.747Z,9.78
2023-03-16T16:30:25.939Z,9.71
2023-03-16T16:33:30.737Z,9.73
2023-03-16T16:36:33.439Z,9.45
2023-03-16T16:39:36.291Z,9.52
2023-03-16T16:42:40.209Z,9.45
2023-03-16T16:45:44.420Z,9.53
2023-03-16T16:48:48.728Z,9.40
2023-03-16T16:51:52.347Z,9.22
2023-03-16T16:54:55.226Z,9.23
2023-03-16T16:57:58.045Z,9.20
2023-03-16T17:01:02.835Z,9.08
2023-03-16T17:04:13.088Z,9.22
2023-03-16T17:07:15.879Z,9.06
2023-03-16T17:10:21.440Z,8.90
2023-03-16T17:13:33.462Z,8.93
2023-03-16T17:16:38.059Z,8.83
2023-03-16T17:19:41.034Z,8.74
2023-03-16T17:22:43.777Z,8.69
2023-03-16T17:25:46.637Z,8.78
2023-03-16T17:28:53.214Z,8.68
2023-03-16T17:31:57.415Z,8.60
2023-03-16T17:35:00.113Z,8.41
2023-03-16T17:38:02.877Z,8.34
2023-03-16T17:41:06.199Z,8.57
2023-03-16T17:44:15.465Z,8.50
2023-03-16T17:47:22.308Z,8.50
2023-03-16T17:50:29.310Z,8.52
2023-03-16T17:53:33.488Z,8.24
2023-03-16T17:56:37.305Z,8.14
2023-03-16T17:59:40.959Z,8.19
2023-03-16T18:02:52.405Z,8.24
2023-03-16T18:05:55.454Z,8.27
2023-03-16T18:08:58.647Z,8.24
2023-03-16T18:12:01.527Z,8.22
2023-03-16T18:15:04.478Z,8.17
2023-03-16T18:18:09.128Z,8.23
2023-03-16T18:21:19.056Z,8.31
2023-03-16T18:24:25.506Z,8.15
2023-03-16T18:27:28.353Z,8.24
2023-03-16T18:30:32.742Z,8.38
2023-03-16T18:33:39.473Z,8.34
2023-03-16T18:36:45.819Z,8.40
2023-03-16T18:39:49.068Z,8.42
2023-03-16T18:42:54.354Z,8.42
2023-03-16T18:45:57.243Z,8.31
2023-03-16T18:49:04.625Z,8.32
2023-03-16T18:52:17.863Z,8.38
2023-03-16T18:55:23.730Z,8.33
2023-03-16T18:58:26.600Z,8.38
2023-03-16T19:01:31.632Z,8.22
2023-03-16T19:04:36.153Z,8.42
2023-03-16T19:07:42.105Z,8.29
2023-03-16T19:10:49.105Z,8.35
2023-03-16T19:13:54.720Z,8.14
2023-03-16T19:16:57.816Z,8.25
2023-03-16T19:20:02.057Z,8.15
2023-03-16T19:23:08.333Z,8.24
2023-03-16T19:26:11.754Z,8.06
2023-03-16T19:29:16.019Z,8.01
2023-03-16T19:32:19.894Z,8.00
2023-03-16T19:35:33.830Z,7.98
2023-03-16T19:38:46.126Z,8.00
2023-03-16T19:41:55.192Z,8.06
2023-03-16T19:44:58.012Z,8.09
2023-03-16T19:48:01.440Z,8.12
2023-03-16T19:51:06.651Z,8.06
2023-03-16T19:54:20.861Z,8.11
2023-03-16T19:57:24.394Z,8.15
2023-03-16T20:00:28.022Z,8.01
2023-03-16T20:03:34.326Z,8.01
2023-03-16T20:06:38.620Z,8.25
2023-03-16T20:09:41.670Z,8.24
2023-03-16T20:12:44.381Z,8.18
2023-03-16T20:15:47.708Z,8.11
2023-03-16T20:18:54.834Z,8.25
2023-03-16T20:21:59.108Z,8.27
2023-03-16T20:25:05.125Z,7.98
2023-03-16T20:28:17.501Z,8.05
2023-03-16T20:31:22.618Z,8.07
2023-03-16T20:34:27.720Z,8.24
2023-03-16T20:37:32.350Z,7.91
2023-03-16T20:40:35.086Z,8.17
2023-03-16T20:43:38.735Z,7.99
2023-03-16T20:46:41.815Z,7.90
2023-03-16T20:49:45.089Z,8.04
2023-03-16T20:52:49.546Z,7.94
2023-03-16T20:55:54.478Z,8.01
2023-03-16T20:58:58.003Z,7.91
2023-03-16T21:02:01.673Z,7.77
2023-03-16T21:05:07.803Z,7.89
2023-03-16T21:08:12.904Z,7.81
2023-03-16T21:11:23.035Z,7.88
2023-03-16T21:14:26.360Z,7.88
2023-03-16T21:17:31.944Z,7.78
2023-03-16T21:20:36.805Z,7.62
2023-03-16T21:23:41.047Z,7.53
2023-03-16T21:26:47.401Z,7.63
2023-03-16T21:29:50.392Z,7.59
2023-03-16T21:32:54.316Z,7.63
2023-03-16T21:35:57.276Z,7.55
2023-03-16T21:39:01.538Z,7.51
2023-03-16T21:42:04.262Z,7.48
2023-03-16T21:45:08.447Z,7.37
2023-03-16T21:48:16.734Z,7.35
2023-03-16T21:51:22.145Z,7.47
2023-03-16T21:54:26.626Z,7.35
2023-03-16T21:57:29.345Z,7.32
2023-03-16T22:00:33.434Z,7.42
2023-03-16T22:03:50.632Z,7.28
2023-03-16T22:06:54.013Z,7.52
2023-03-16T22:09:58.321Z,7.47
2023-03-16T22:13:02.125Z,7.55
2023-03-16T22:16:15.124Z,7.43
2023-03-16T22:19:18.137Z,7.32
2023-03-16T22:22:21.354Z,7.52
2023-03-16T22:25:27.748Z,7.58
2023-03-16T22:28:31.494Z,7.25
2023-03-16T22:31:36.987Z,7.51
2023-03-16T22:34:44.011Z,7.16
2023-03-16T22:37:46.950Z,7.06
2023-03-16T22:40:51.384Z,6.98
2023-03-16T22:43:55.223Z,7.18
2023-03-16T22:46:58.211Z,7.00
2023-03-16T22:50:01.252Z,7.02
2023-03-16T22:53:08.621Z,7.08
2023-03-16T22:56:13.002Z,6.92
2023-03-16T22:59:18.888Z,7.08
2023-03-16T23:02:25.466Z,7.05
2023-03-16T23:05:30.502Z,7.00
2023-03-16T23:08:33.613Z,7.00
2023-03-16T23:11:39.686Z,6.85
2023-03-16T23:14:43.260Z,6.80
2023-03-16T23:17:46.587Z,6.91
2023-03-16T23:20:50.142Z,6.81
2023-03-16T23:24:03.478Z,6.68
2023-03-16T23:27:17.332Z,6.74
2023-03-16T23:30:23.603Z,6.62
2023-03-16T23:33:27.121Z,6.63
2023-03-16T23:36:30.053Z,6.37
2023-03-16T23:39:32.948Z,6.47
2023-03-16T23:42:37.236Z,6.49
2023-03-16T23:45:42.397Z,6.24
2023-03-16T23:48:47.533Z,6.53
2023-03-16T23:51:51.243Z,6.38
2023-03-16T23:54:54.080Z,6.42
2023-03-16T23:57:58.423Z,6.33
